Chehalis, Washington
Current Conditions -  °F | °C
As of 5:15 AM on Thursday 30 Oct 2014 (Local Time) from KCLS Reporting Station
Overcast Overcast  
Wind Chill: 54°   Ceiling: 7500
Heat Index: 54°   Visibility: 10mi
Dew Point: 54°   Wind: 5mph
Humidity: 100%   Direction: 30°NNE
Pressure: 29.9"   Gusts: NA
Location:  46.66°N, 122.96°W
Report Text: KCLS 301215Z AUTO 03004KT 10SM SCT055 BKN075 OVC100 12/12 A2990 RMK AO2
Loading
Personal Weather Stations






























Interactive Weather Map New forecast layout! Learn more

10-Day Weather Forecast

Advertisements
Track Severe Weather on mobile